Central Valley, California
Current Conditions -  °F | °C
As of 4:53 PM on Friday 19 Dec 2014 (Local Time) from KRDD Reporting Station
Overcast Overcast  
Wind Chill: 51°   Ceiling: 700
Heat Index: 51°   Visibility: 8mi
Dew Point: 50°   Wind: 12mph
Humidity: 96%   Direction: 190°S
Pressure: 30.12"   Gusts: NA
Location:  40.6814°N, 122.35°W
Report Text: KRDD 200053Z 19010KT 8SM OVC007 11/10 A3012 RMK AO2 CIG 005V010 SLP198 T01060100
Loading
Personal Weather Stations






























Interactive Weather Map New forecast layout! Learn more

10-Day Weather Forecast

Advertisements
Track Severe Weather on mobile